sensor_id;sensor_type;location;lat;lon;timestamp;P1;durP1;ratioP1;P2;durP2;ratioP2
39958;SDS011;25639;53.634;9.880;2022-07-04T00:02:23;7.13;;;3.15;;
39958;SDS011;25639;53.634;9.880;2022-07-04T00:04:48;5.53;;;3.25;;
39958;SDS011;25639;53.634;9.880;2022-07-04T00:07:13;9.70;;;3.55;;
39958;SDS011;25639;53.634;9.880;2022-07-04T00:09:39;7.72;;;3.50;;
39958;SDS011;25639;53.634;9.880;2022-07-04T00:12:05;10.57;;;3.42;;
39958;SDS011;25639;53.634;9.880;2022-07-04T00:14:30;6.88;;;3.83;;
39958;SDS011;25639;53.634;9.880;2022-07-04T00:16:56;10.38;;;3.97;;
39958;SDS011;25639;53.634;9.880;2022-07-04T00:19:21;8.18;;;3.50;;
39958;SDS011;25639;53.634;9.880;2022-07-04T00:21:46;10.40;;;3.85;;
39958;SDS011;25639;53.634;9.880;2022-07-04T00:24:11;4.05;;;3.15;;
39958;SDS011;25639;53.634;9.880;2022-07-04T00:26:37;9.70;;;3.75;;
39958;SDS011;25639;53.634;9.880;2022-07-04T00:29:02;8.32;;;4.28;;
39958;SDS011;25639;53.634;9.880;2022-07-04T00:31:27;10.55;;;4.15;;
39958;SDS011;25639;53.634;9.880;2022-07-04T00:33:53;10.93;;;4.28;;
39958;SDS011;25639;53.634;9.880;2022-07-04T00:36:18;9.65;;;4.70;;
39958;SDS011;25639;53.634;9.880;2022-07-04T00:38:43;11.43;;;4.80;;
39958;SDS011;25639;53.634;9.880;2022-07-04T00:41:09;14.40;;;4.65;;
39958;SDS011;25639;53.634;9.880;2022-07-04T00:43:34;7.00;;;4.40;;
39958;SDS011;25639;53.634;9.880;2022-07-04T00:46:02;11.43;;;4.93;;
39958;SDS011;25639;53.634;9.880;2022-07-04T00:48:28;15.77;;;5.47;;
39958;SDS011;25639;53.634;9.880;2022-07-04T00:50:53;12.85;;;5.72;;
39958;SDS011;25639;53.634;9.880;2022-07-04T00:53:19;9.10;;;5.38;;
39958;SDS011;25639;53.634;9.880;2022-07-04T00:55:47;7.38;;;4.63;;
39958;SDS011;25639;53.634;9.880;2022-07-04T00:58:14;8.35;;;5.00;;
39958;SDS011;25639;53.634;9.880;2022-07-04T01:00:43;10.23;;;5.28;;
39958;SDS011;25639;53.634;9.880;2022-07-04T01:03:09;11.57;;;5.60;;
39958;SDS011;25639;53.634;9.880;2022-07-04T01:05:34;11.20;;;6.43;;
39958;SDS011;25639;53.634;9.880;2022-07-04T01:07:59;10.93;;;6.05;;
39958;SDS011;25639;53.634;9.880;2022-07-04T01:10:25;13.07;;;6.55;;
39958;SDS011;25639;53.634;9.880;2022-07-04T01:12:51;8.52;;;5.85;;
39958;SDS011;25639;53.634;9.880;2022-07-04T01:15:16;14.40;;;7.50;;
39958;SDS011;25639;53.634;9.880;2022-07-04T01:17:42;17.35;;;7.50;;
39958;SDS011;25639;53.634;9.880;2022-07-04T01:20:11;19.30;;;7.63;;
39958;SDS011;25639;53.634;9.880;2022-07-04T01:22:37;12.23;;;7.38;;
39958;SDS011;25639;53.634;9.880;2022-07-04T01:25:02;10.43;;;7.38;;
39958;SDS011;25639;53.634;9.880;2022-07-04T01:27:28;14.85;;;8.15;;
39958;SDS011;25639;53.634;9.880;2022-07-04T01:29:53;14.48;;;7.82;;
39958;SDS011;25639;53.634;9.880;2022-07-04T01:32:19;19.50;;;8.05;;
39958;SDS011;25639;53.634;9.880;2022-07-04T01:34:45;13.98;;;7.97;;
39958;SDS011;25639;53.634;9.880;2022-07-04T01:37:10;13.10;;;8.60;;
39958;SDS011;25639;53.634;9.880;2022-07-04T01:39:36;15.45;;;9.05;;
39958;SDS011;25639;53.634;9.880;2022-07-04T01:42:01;16.83;;;8.93;;
39958;SDS011;25639;53.634;9.880;2022-07-04T01:44:27;14.27;;;8.73;;
39958;SDS011;25639;53.634;9.880;2022-07-04T01:46:52;14.68;;;8.32;;
39958;SDS011;25639;53.634;9.880;2022-07-04T01:49:17;17.88;;;8.90;;
39958;SDS011;25639;53.634;9.880;2022-07-04T01:51:43;16.55;;;10.07;;
39958;SDS011;25639;53.634;9.880;2022-07-04T01:54:10;16.52;;;9.60;;
39958;SDS011;25639;53.634;9.880;2022-07-04T01:56:35;22.50;;;11.10;;
39958;SDS011;25639;53.634;9.880;2022-07-04T01:59:00;17.90;;;11.27;;
39958;SDS011;25639;53.634;9.880;2022-07-04T02:01:28;21.95;;;12.77;;
39958;SDS011;25639;53.634;9.880;2022-07-04T02:03:54;20.95;;;12.95;;
39958;SDS011;25639;53.634;9.880;2022-07-04T02:06:19;21.67;;;13.25;;
39958;SDS011;25639;53.634;9.880;2022-07-04T02:08:45;26.02;;;14.13;;
39958;SDS011;25639;53.634;9.880;2022-07-04T02:11:29;24.85;;;14.07;;
39958;SDS011;25639;53.634;9.880;2022-07-04T02:14:14;22.45;;;13.68;;
39958;SDS011;25639;53.634;9.880;2022-07-04T02:16:39;19.58;;;12.93;;
39958;SDS011;25639;53.634;9.880;2022-07-04T02:19:04;25.13;;;14.38;;
39958;SDS011;25639;53.634;9.880;2022-07-04T02:21:30;21.13;;;13.93;;
39958;SDS011;25639;53.634;9.880;2022-07-04T02:23:55;27.52;;;14.10;;
39958;SDS011;25639;53.634;9.880;2022-07-04T02:26:20;20.42;;;13.10;;
39958;SDS011;25639;53.634;9.880;2022-07-04T02:28:45;19.95;;;13.23;;
39958;SDS011;25639;53.634;9.880;2022-07-04T02:31:11;20.30;;;12.15;;
39958;SDS011;25639;53.634;9.880;2022-07-04T02:33:36;17.35;;;11.88;;
39958;SDS011;25639;53.634;9.880;2022-07-04T02:36:02;20.33;;;12.32;;
39958;SDS011;25639;53.634;9.880;2022-07-04T02:38:27;21.00;;;12.07;;
39958;SDS011;25639;53.634;9.880;2022-07-04T02:40:52;17.98;;;11.13;;
39958;SDS011;25639;53.634;9.880;2022-07-04T02:43:18;19.63;;;11.52;;
39958;SDS011;25639;53.634;9.880;2022-07-04T02:45:43;15.68;;;10.30;;
39958;SDS011;25639;53.634;9.880;2022-07-04T02:48:08;15.70;;;9.77;;
39958;SDS011;25639;53.634;9.880;2022-07-04T02:50:33;15.23;;;11.52;;
39958;SDS011;25639;53.634;9.880;2022-07-04T02:52:59;17.25;;;11.60;;
39958;SDS011;25639;53.634;9.880;2022-07-04T02:55:24;19.50;;;11.13;;
39958;SDS011;25639;53.634;9.880;2022-07-04T02:57:49;24.30;;;12.73;;
39958;SDS011;25639;53.634;9.880;2022-07-04T03:00:14;14.55;;;10.93;;
39958;SDS011;25639;53.634;9.880;2022-07-04T03:02:40;17.67;;;10.85;;
39958;SDS011;25639;53.634;9.880;2022-07-04T03:05:05;16.70;;;12.10;;
39958;SDS011;25639;53.634;9.880;2022-07-04T03:07:31;15.00;;;10.93;;
39958;SDS011;25639;53.634;9.880;2022-07-04T03:09:56;21.63;;;13.52;;
39958;SDS011;25639;53.634;9.880;2022-07-04T03:12:21;18.33;;;12.27;;
39958;SDS011;25639;53.634;9.880;2022-07-04T03:14:47;17.75;;;13.45;;
39958;SDS011;25639;53.634;9.880;2022-07-04T03:17:12;23.23;;;13.18;;
39958;SDS011;25639;53.634;9.880;2022-07-04T03:19:37;21.75;;;13.68;;
39958;SDS011;25639;53.634;9.880;2022-07-04T03:22:03;22.20;;;14.65;;
39958;SDS011;25639;53.634;9.880;2022-07-04T03:24:28;20.10;;;14.32;;
39958;SDS011;25639;53.634;9.880;2022-07-04T03:26:54;27.70;;;15.07;;
39958;SDS011;25639;53.634;9.880;2022-07-04T03:29:19;23.42;;;15.23;;
39958;SDS011;25639;53.634;9.880;2022-07-04T03:31:44;26.42;;;15.38;;
39958;SDS011;25639;53.634;9.880;2022-07-04T03:34:10;23.40;;;14.68;;
39958;SDS011;25639;53.634;9.880;2022-07-04T03:36:35;19.13;;;14.20;;
39958;SDS011;25639;53.634;9.880;2022-07-04T03:39:01;23.15;;;15.55;;
39958;SDS011;25639;53.634;9.880;2022-07-04T03:41:27;22.02;;;15.00;;
39958;SDS011;25639;53.634;9.880;2022-07-04T03:43:52;23.85;;;15.23;;
39958;SDS011;25639;53.634;9.880;2022-07-04T03:46:17;21.63;;;14.65;;
39958;SDS011;25639;53.634;9.880;2022-07-04T03:48:42;22.88;;;15.23;;
39958;SDS011;25639;53.634;9.880;2022-07-04T03:51:08;23.35;;;15.32;;
39958;SDS011;25639;53.634;9.880;2022-07-04T03:53:34;22.23;;;14.68;;
39958;SDS011;25639;53.634;9.880;2022-07-04T03:56:00;20.08;;;14.38;;
39958;SDS011;25639;53.634;9.880;2022-07-04T03:58:25;21.35;;;14.27;;
39958;SDS011;25639;53.634;9.880;2022-07-04T04:00:50;21.63;;;14.02;;
39958;SDS011;25639;53.634;9.880;2022-07-04T04:03:15;25.45;;;14.68;;
39958;SDS011;25639;53.634;9.880;2022-07-04T04:05:59;16.67;;;12.45;;
39958;SDS011;25639;53.634;9.880;2022-07-04T04:08:25;18.83;;;13.02;;
39958;SDS011;25639;53.634;9.880;2022-07-04T04:10:50;15.98;;;12.50;;
39958;SDS011;25639;53.634;9.880;2022-07-04T04:13:16;18.55;;;13.10;;
39958;SDS011;25639;53.634;9.880;2022-07-04T04:15:41;18.05;;;12.05;;
39958;SDS011;25639;53.634;9.880;2022-07-04T04:18:07;16.58;;;11.65;;
39958;SDS011;25639;53.634;9.880;2022-07-04T04:20:32;20.30;;;13.15;;
39958;SDS011;25639;53.634;9.880;2022-07-04T04:22:57;13.13;;;10.35;;
39958;SDS011;25639;53.634;9.880;2022-07-04T04:25:22;13.35;;;10.13;;
39958;SDS011;25639;53.634;9.880;2022-07-04T04:27:48;13.82;;;10.43;;
39958;SDS011;25639;53.634;9.880;2022-07-04T04:30:13;13.95;;;9.38;;
39958;SDS011;25639;53.634;9.880;2022-07-04T04:32:38;16.38;;;9.70;;
39958;SDS011;25639;53.634;9.880;2022-07-04T04:35:04;12.73;;;9.13;;
39958;SDS011;25639;53.634;9.880;2022-07-04T04:37:30;14.82;;;9.27;;
39958;SDS011;25639;53.634;9.880;2022-07-04T04:39:55;14.07;;;8.73;;
39958;SDS011;25639;53.634;9.880;2022-07-04T04:42:20;10.73;;;7.78;;
39958;SDS011;25639;53.634;9.880;2022-07-04T04:44:46;12.02;;;7.75;;
39958;SDS011;25639;53.634;9.880;2022-07-04T04:47:11;9.70;;;8.05;;
39958;SDS011;25639;53.634;9.880;2022-07-04T04:49:37;11.73;;;7.55;;
39958;SDS011;25639;53.634;9.880;2022-07-04T04:52:02;10.50;;;6.78;;
39958;SDS011;25639;53.634;9.880;2022-07-04T04:54:28;11.00;;;6.20;;
39958;SDS011;25639;53.634;9.880;2022-07-04T04:56:53;12.73;;;6.50;;
39958;SDS011;25639;53.634;9.880;2022-07-04T04:59:18;9.80;;;6.95;;
39958;SDS011;25639;53.634;9.880;2022-07-04T05:01:43;9.20;;;5.40;;
39958;SDS011;25639;53.634;9.880;2022-07-04T05:04:09;11.02;;;6.22;;
39958;SDS011;25639;53.634;9.880;2022-07-04T05:06:35;10.00;;;5.10;;
39958;SDS011;25639;53.634;9.880;2022-07-04T05:09:00;9.85;;;4.93;;
39958;SDS011;25639;53.634;9.880;2022-07-04T05:11:25;8.18;;;4.78;;
39958;SDS011;25639;53.634;9.880;2022-07-04T05:13:51;8.38;;;4.47;;
39958;SDS011;25639;53.634;9.880;2022-07-04T05:16:16;8.75;;;4.00;;
39958;SDS011;25639;53.634;9.880;2022-07-04T05:18:42;8.73;;;4.15;;
39958;SDS011;25639;53.634;9.880;2022-07-04T05:21:07;8.48;;;3.53;;
39958;SDS011;25639;53.634;9.880;2022-07-04T05:23:32;5.43;;;3.03;;
39958;SDS011;25639;53.634;9.880;2022-07-04T05:25:57;5.55;;;3.10;;
39958;SDS011;25639;53.634;9.880;2022-07-04T05:28:23;7.50;;;3.65;;
39958;SDS011;25639;53.634;9.880;2022-07-04T05:30:48;6.30;;;2.90;;
39958;SDS011;25639;53.634;9.880;2022-07-04T05:33:14;9.90;;;3.00;;
39958;SDS011;25639;53.634;9.880;2022-07-04T05:35:39;6.78;;;2.60;;
39958;SDS011;25639;53.634;9.880;2022-07-04T05:38:05;7.65;;;2.63;;
39958;SDS011;25639;53.634;9.880;2022-07-04T05:40:30;6.05;;;2.90;;
39958;SDS011;25639;53.634;9.880;2022-07-04T05:42:55;3.63;;;2.10;;
39958;SDS011;25639;53.634;9.880;2022-07-04T05:45:21;6.28;;;2.08;;
39958;SDS011;25639;53.634;9.880;2022-07-04T05:47:47;4.05;;;2.20;;
39958;SDS011;25639;53.634;9.880;2022-07-04T05:50:12;11.10;;;5.70;;
39958;SDS011;25639;53.634;9.880;2022-07-04T05:52:37;6.50;;;2.00;;
39958;SDS011;25639;53.634;9.880;2022-07-04T05:55:03;6.13;;;1.90;;
39958;SDS011;25639;53.634;9.880;2022-07-04T05:57:28;5.13;;;1.83;;
39958;SDS011;25639;53.634;9.880;2022-07-04T05:59:54;5.18;;;1.90;;
39958;SDS011;25639;53.634;9.880;2022-07-04T06:02:19;5.70;;;1.83;;
39958;SDS011;25639;53.634;9.880;2022-07-04T06:04:44;4.38;;;1.75;;
39958;SDS011;25639;53.634;9.880;2022-07-04T06:07:10;5.43;;;1.30;;
39958;SDS011;25639;53.634;9.880;2022-07-04T06:09:35;4.35;;;1.60;;
39958;SDS011;25639;53.634;9.880;2022-07-04T06:12:01;4.25;;;1.67;;
39958;SDS011;25639;53.634;9.880;2022-07-04T06:14:27;4.22;;;1.50;;
39958;SDS011;25639;53.634;9.880;2022-07-04T06:16:52;3.45;;;1.48;;
39958;SDS011;25639;53.634;9.880;2022-07-04T06:19:17;4.00;;;1.40;;
39958;SDS011;25639;53.634;9.880;2022-07-04T06:21:43;6.45;;;1.73;;
39958;SDS011;25639;53.634;9.880;2022-07-04T06:24:08;5.10;;;1.30;;
39958;SDS011;25639;53.634;9.880;2022-07-04T06:26:33;5.18;;;1.65;;
39958;SDS011;25639;53.634;9.880;2022-07-04T06:28:59;4.63;;;1.50;;
39958;SDS011;25639;53.634;9.880;2022-07-04T06:31:24;7.38;;;1.63;;
39958;SDS011;25639;53.634;9.880;2022-07-04T06:33:49;5.68;;;1.67;;
39958;SDS011;25639;53.634;9.880;2022-07-04T06:36:34;7.78;;;1.48;;
39958;SDS011;25639;53.634;9.880;2022-07-04T06:38:59;7.25;;;1.52;;
39958;SDS011;25639;53.634;9.880;2022-07-04T06:41:25;6.22;;;1.63;;
39958;SDS011;25639;53.634;9.880;2022-07-04T06:43:50;5.97;;;1.75;;
39958;SDS011;25639;53.634;9.880;2022-07-04T06:46:16;4.15;;;1.80;;
39958;SDS011;25639;53.634;9.880;2022-07-04T06:48:41;7.47;;;1.85;;
39958;SDS011;25639;53.634;9.880;2022-07-04T06:51:06;9.50;;;2.20;;
39958;SDS011;25639;53.634;9.880;2022-07-04T06:53:32;5.35;;;1.70;;
39958;SDS011;25639;53.634;9.880;2022-07-04T06:55:57;6.03;;;1.20;;
39958;SDS011;25639;53.634;9.880;2022-07-04T06:58:22;5.80;;;1.35;;
39958;SDS011;25639;53.634;9.880;2022-07-04T07:00:47;3.58;;;1.50;;
39958;SDS011;25639;53.634;9.880;2022-07-04T07:03:13;5.20;;;1.60;;
39958;SDS011;25639;53.634;9.880;2022-07-04T07:05:38;5.05;;;1.30;;
39958;SDS011;25639;53.634;9.880;2022-07-04T07:08:03;3.70;;;1.10;;
39958;SDS011;25639;53.634;9.880;2022-07-04T07:10:29;2.63;;;1.10;;
39958;SDS011;25639;53.634;9.880;2022-07-04T07:12:57;5.68;;;1.33;;
39958;SDS011;25639;53.634;9.880;2022-07-04T07:15:23;3.15;;;1.00;;
39958;SDS011;25639;53.634;9.880;2022-07-04T07:17:48;5.15;;;1.30;;
39958;SDS011;25639;53.634;9.880;2022-07-04T07:20:13;4.25;;;1.40;;
39958;SDS011;25639;53.634;9.880;2022-07-04T07:22:39;9.70;;;1.80;;
39958;SDS011;25639;53.634;9.880;2022-07-04T07:25:06;5.43;;;1.30;;
39958;SDS011;25639;53.634;9.880;2022-07-04T07:27:32;4.88;;;1.02;;
39958;SDS011;25639;53.634;9.880;2022-07-04T07:29:57;4.25;;;1.55;;
39958;SDS011;25639;53.634;9.880;2022-07-04T07:32:22;4.25;;;1.38;;
39958;SDS011;25639;53.634;9.880;2022-07-04T07:34:47;3.97;;;1.35;;
39958;SDS011;25639;53.634;9.880;2022-07-04T07:37:13;5.55;;;1.00;;
39958;SDS011;25639;53.634;9.880;2022-07-04T07:39:38;3.75;;;1.15;;
39958;SDS011;25639;53.634;9.880;2022-07-04T07:42:03;3.78;;;1.10;;
39958;SDS011;25639;53.634;9.880;2022-07-04T07:44:29;3.50;;;0.95;;
39958;SDS011;25639;53.634;9.880;2022-07-04T07:46:54;3.70;;;1.30;;
39958;SDS011;25639;53.634;9.880;2022-07-04T07:49:19;3.45;;;1.00;;
39958;SDS011;25639;53.634;9.880;2022-07-04T07:51:45;2.95;;;1.17;;
39958;SDS011;25639;53.634;9.880;2022-07-04T07:54:10;4.53;;;1.20;;
39958;SDS011;25639;53.634;9.880;2022-07-04T07:56:35;6.60;;;1.60;;
39958;SDS011;25639;53.634;9.880;2022-07-04T07:59:01;5.93;;;1.00;;
39958;SDS011;25639;53.634;9.880;2022-07-04T08:01:26;7.55;;;1.40;;
39958;SDS011;25639;53.634;9.880;2022-07-04T08:03:52;6.18;;;1.50;;
39958;SDS011;25639;53.634;9.880;2022-07-04T08:09:01;3.90;;;1.20;;
39958;SDS011;25639;53.634;9.880;2022-07-04T08:11:26;4.50;;;1.25;;
39958;SDS011;25639;53.634;9.880;2022-07-04T08:13:52;2.38;;;1.10;;
39958;SDS011;25639;53.634;9.880;2022-07-04T08:16:18;3.45;;;1.00;;
39958;SDS011;25639;53.634;9.880;2022-07-04T08:18:43;2.97;;;0.82;;
39958;SDS011;25639;53.634;9.880;2022-07-04T08:21:09;1.80;;;0.70;;
39958;SDS011;25639;53.634;9.880;2022-07-04T08:23:35;3.38;;;1.10;;
39958;SDS011;25639;53.634;9.880;2022-07-04T08:26:01;2.53;;;0.77;;
39958;SDS011;25639;53.634;9.880;2022-07-04T08:28:27;4.18;;;0.80;;
39958;SDS011;25639;53.634;9.880;2022-07-04T08:30:53;3.38;;;0.93;;
39958;SDS011;25639;53.634;9.880;2022-07-04T08:33:19;3.30;;;0.85;;
39958;SDS011;25639;53.634;9.880;2022-07-04T08:35:44;3.60;;;0.90;;
39958;SDS011;25639;53.634;9.880;2022-07-04T08:38:09;2.85;;;0.88;;
39958;SDS011;25639;53.634;9.880;2022-07-04T08:40:35;4.10;;;1.00;;
39958;SDS011;25639;53.634;9.880;2022-07-04T08:43:01;3.40;;;0.90;;
39958;SDS011;25639;53.634;9.880;2022-07-04T08:45:29;2.83;;;1.10;;
39958;SDS011;25639;53.634;9.880;2022-07-04T08:48:01;3.28;;;0.90;;
39958;SDS011;25639;53.634;9.880;2022-07-04T08:53:03;3.03;;;0.80;;
39958;SDS011;25639;53.634;9.880;2022-07-04T08:55:32;2.25;;;0.60;;
39958;SDS011;25639;53.634;9.880;2022-07-04T08:58:16;2.83;;;0.77;;
39958;SDS011;25639;53.634;9.880;2022-07-04T09:00:52;4.50;;;0.90;;
39958;SDS011;25639;53.634;9.880;2022-07-04T09:03:18;3.92;;;0.77;;
39958;SDS011;25639;53.634;9.880;2022-07-04T09:05:44;3.47;;;1.33;;
39958;SDS011;25639;53.634;9.880;2022-07-04T09:08:10;2.58;;;0.90;;
39958;SDS011;25639;53.634;9.880;2022-07-04T09:10:36;2.55;;;0.90;;
39958;SDS011;25639;53.634;9.880;2022-07-04T09:13:02;1.85;;;0.80;;
39958;SDS011;25639;53.634;9.880;2022-07-04T09:15:29;3.63;;;0.80;;
39958;SDS011;25639;53.634;9.880;2022-07-04T09:17:55;1.85;;;0.75;;
39958;SDS011;25639;53.634;9.880;2022-07-04T09:20:21;2.45;;;0.75;;
39958;SDS011;25639;53.634;9.880;2022-07-04T09:22:48;2.28;;;0.70;;
39958;SDS011;25639;53.634;9.880;2022-07-04T09:25:15;2.42;;;0.63;;
39958;SDS011;25639;53.634;9.880;2022-07-04T09:27:45;1.48;;;0.73;;
39958;SDS011;25639;53.634;9.880;2022-07-04T09:30:13;3.30;;;0.80;;
39958;SDS011;25639;53.634;9.880;2022-07-04T09:32:44;2.20;;;0.65;;
39958;SDS011;25639;53.634;9.880;2022-07-04T09:35:11;3.80;;;0.70;;
39958;SDS011;25639;53.634;9.880;2022-07-04T09:37:50;2.88;;;0.60;;
39958;SDS011;25639;53.634;9.880;2022-07-04T09:43:00;4.05;;;0.75;;
39958;SDS011;25639;53.634;9.880;2022-07-04T09:45:35;4.13;;;1.00;;
39958;SDS011;25639;53.634;9.880;2022-07-04T09:48:17;2.47;;;0.70;;
39958;SDS011;25639;53.634;9.880;2022-07-04T09:50:42;4.18;;;0.82;;
39958;SDS011;25639;53.634;9.880;2022-07-04T09:53:08;3.03;;;0.77;;
39958;SDS011;25639;53.634;9.880;2022-07-04T09:55:34;4.32;;;1.35;;
39958;SDS011;25639;53.634;9.880;2022-07-04T09:58:03;3.95;;;0.75;;
39958;SDS011;25639;53.634;9.880;2022-07-04T10:03:18;1.77;;;0.57;;
39958;SDS011;25639;53.634;9.880;2022-07-04T10:05:46;3.25;;;0.77;;
39958;SDS011;25639;53.634;9.880;2022-07-04T10:08:13;5.53;;;0.90;;
39958;SDS011;25639;53.634;9.880;2022-07-04T10:10:38;2.60;;;0.60;;
39958;SDS011;25639;53.634;9.880;2022-07-04T10:15:31;2.33;;;0.70;;
39958;SDS011;25639;53.634;9.880;2022-07-04T10:17:57;2.95;;;0.70;;
39958;SDS011;25639;53.634;9.880;2022-07-04T10:20:23;2.47;;;0.70;;
39958;SDS011;25639;53.634;9.880;2022-07-04T10:22:48;1.63;;;0.65;;
39958;SDS011;25639;53.634;9.880;2022-07-04T10:25:14;2.70;;;0.85;;
39958;SDS011;25639;53.634;9.880;2022-07-04T10:27:39;1.63;;;0.80;;
39958;SDS011;25639;53.634;9.880;2022-07-04T10:30:06;1.92;;;0.60;;
39958;SDS011;25639;53.634;9.880;2022-07-04T10:32:36;1.33;;;0.70;;
39958;SDS011;25639;53.634;9.880;2022-07-04T10:35:02;4.13;;;0.60;;
39958;SDS011;25639;53.634;9.880;2022-07-04T10:40:42;4.15;;;0.80;;
39958;SDS011;25639;53.634;9.880;2022-07-04T10:48:28;2.13;;;0.70;;
39958;SDS011;25639;53.634;9.880;2022-07-04T10:51:04;3.13;;;0.70;;
39958;SDS011;25639;53.634;9.880;2022-07-04T10:53:32;3.30;;;0.55;;
39958;SDS011;25639;53.634;9.880;2022-07-04T10:58:43;4.27;;;0.80;;
39958;SDS011;25639;53.634;9.880;2022-07-04T11:01:12;2.00;;;0.80;;
39958;SDS011;25639;53.634;9.880;2022-07-04T11:03:48;1.70;;;0.60;;
39958;SDS011;25639;53.634;9.880;2022-07-04T11:06:51;1.02;;;0.60;;
39958;SDS011;25639;53.634;9.880;2022-07-04T11:09:18;2.63;;;0.90;;
39958;SDS011;25639;53.634;9.880;2022-07-04T11:17:01;1.35;;;0.60;;
39958;SDS011;25639;53.634;9.880;2022-07-04T11:19:27;3.05;;;0.88;;
39958;SDS011;25639;53.634;9.880;2022-07-04T11:21:54;2.15;;;0.77;;
39958;SDS011;25639;53.634;9.880;2022-07-04T11:24:22;3.83;;;0.55;;
39958;SDS011;25639;53.634;9.880;2022-07-04T11:26:49;3.92;;;0.70;;
39958;SDS011;25639;53.634;9.880;2022-07-04T11:29:14;2.35;;;0.70;;
39958;SDS011;25639;53.634;9.880;2022-07-04T11:31:41;3.42;;;0.88;;
39958;SDS011;25639;53.634;9.880;2022-07-04T11:34:09;3.15;;;0.80;;
39958;SDS011;25639;53.634;9.880;2022-07-04T11:36:35;3.47;;;0.65;;
39958;SDS011;25639;53.634;9.880;2022-07-04T11:39:10;2.80;;;0.88;;
39958;SDS011;25639;53.634;9.880;2022-07-04T11:41:41;2.78;;;0.88;;
39958;SDS011;25639;53.634;9.880;2022-07-04T11:44:30;5.07;;;1.00;;
39958;SDS011;25639;53.634;9.880;2022-07-04T11:47:23;1.70;;;0.65;;
39958;SDS011;25639;53.634;9.880;2022-07-04T11:52:16;2.88;;;1.00;;
39958;SDS011;25639;53.634;9.880;2022-07-04T11:54:44;4.97;;;0.90;;
39958;SDS011;25639;53.634;9.880;2022-07-04T11:59:48;2.30;;;0.98;;
39958;SDS011;25639;53.634;9.880;2022-07-04T12:02:17;1.65;;;0.70;;
39958;SDS011;25639;53.634;9.880;2022-07-04T12:04:43;4.22;;;1.05;;
39958;SDS011;25639;53.634;9.880;2022-07-04T12:07:09;4.20;;;0.80;;
39958;SDS011;25639;53.634;9.880;2022-07-04T12:09:39;2.95;;;1.05;;
39958;SDS011;25639;53.634;9.880;2022-07-04T12:12:05;4.60;;;1.02;;
39958;SDS011;25639;53.634;9.880;2022-07-04T12:14:31;3.03;;;0.90;;
39958;SDS011;25639;53.634;9.880;2022-07-04T12:17:10;4.25;;;0.88;;
39958;SDS011;25639;53.634;9.880;2022-07-04T12:19:38;4.88;;;0.77;;
39958;SDS011;25639;53.634;9.880;2022-07-04T12:22:13;3.17;;;0.90;;
39958;SDS011;25639;53.634;9.880;2022-07-04T12:24:48;3.13;;;0.70;;
39958;SDS011;25639;53.634;9.880;2022-07-04T12:27:20;5.38;;;0.90;;
39958;SDS011;25639;53.634;9.880;2022-07-04T12:29:49;2.80;;;0.77;;
39958;SDS011;25639;53.634;9.880;2022-07-04T12:32:15;3.65;;;0.88;;
39958;SDS011;25639;53.634;9.880;2022-07-04T12:34:41;2.10;;;1.00;;
39958;SDS011;25639;53.634;9.880;2022-07-04T12:37:10;2.60;;;0.90;;
39958;SDS011;25639;53.634;9.880;2022-07-04T12:39:38;3.67;;;0.80;;
39958;SDS011;25639;53.634;9.880;2022-07-04T12:44:41;3.90;;;0.95;;
39958;SDS011;25639;53.634;9.880;2022-07-04T12:47:10;2.58;;;0.70;;
39958;SDS011;25639;53.634;9.880;2022-07-04T12:49:37;2.10;;;0.85;;
39958;SDS011;25639;53.634;9.880;2022-07-04T12:52:10;3.20;;;1.05;;
39958;SDS011;25639;53.634;9.880;2022-07-04T12:54:37;3.78;;;0.80;;
39958;SDS011;25639;53.634;9.880;2022-07-04T12:57:10;3.85;;;0.90;;
39958;SDS011;25639;53.634;9.880;2022-07-04T12:59:38;4.70;;;0.95;;
39958;SDS011;25639;53.634;9.880;2022-07-04T13:02:05;3.50;;;1.00;;
39958;SDS011;25639;53.634;9.880;2022-07-04T13:04:31;1.30;;;1.02;;
39958;SDS011;25639;53.634;9.880;2022-07-04T13:06:58;3.55;;;0.90;;
39958;SDS011;25639;53.634;9.880;2022-07-04T13:09:24;1.67;;;0.80;;
39958;SDS011;25639;53.634;9.880;2022-07-04T13:11:50;2.78;;;0.85;;
39958;SDS011;25639;53.634;9.880;2022-07-04T13:16:59;5.13;;;1.00;;
39958;SDS011;25639;53.634;9.880;2022-07-04T13:19:24;2.65;;;1.00;;
39958;SDS011;25639;53.634;9.880;2022-07-04T13:21:50;2.55;;;1.05;;
39958;SDS011;25639;53.634;9.880;2022-07-04T13:24:16;1.15;;;0.80;;
39958;SDS011;25639;53.634;9.880;2022-07-04T13:26:42;1.75;;;0.90;;
39958;SDS011;25639;53.634;9.880;2022-07-04T13:29:07;5.32;;;1.00;;
39958;SDS011;25639;53.634;9.880;2022-07-04T13:31:32;3.20;;;0.90;;
39958;SDS011;25639;53.634;9.880;2022-07-04T13:33:58;3.50;;;0.70;;
39958;SDS011;25639;53.634;9.880;2022-07-04T13:36:23;8.27;;;1.50;;
39958;SDS011;25639;53.634;9.880;2022-07-04T13:38:48;6.65;;;1.00;;
39958;SDS011;25639;53.634;9.880;2022-07-04T13:41:14;4.45;;;1.15;;
39958;SDS011;25639;53.634;9.880;2022-07-04T13:43:40;6.78;;;1.25;;
39958;SDS011;25639;53.634;9.880;2022-07-04T13:46:05;4.55;;;1.00;;
39958;SDS011;25639;53.634;9.880;2022-07-04T13:48:32;3.47;;;1.10;;
39958;SDS011;25639;53.634;9.880;2022-07-04T13:50:57;3.33;;;1.20;;
39958;SDS011;25639;53.634;9.880;2022-07-04T13:53:22;2.55;;;1.00;;
39958;SDS011;25639;53.634;9.880;2022-07-04T13:55:48;4.68;;;1.10;;
39958;SDS011;25639;53.634;9.880;2022-07-04T13:58:13;7.85;;;1.20;;
39958;SDS011;25639;53.634;9.880;2022-07-04T14:00:39;5.78;;;1.40;;
39958;SDS011;25639;53.634;9.880;2022-07-04T14:03:09;5.90;;;1.50;;
39958;SDS011;25639;53.634;9.880;2022-07-04T14:05:35;2.60;;;1.20;;
39958;SDS011;25639;53.634;9.880;2022-07-04T14:08:00;4.22;;;1.20;;
39958;SDS011;25639;53.634;9.880;2022-07-04T14:10:25;6.63;;;1.13;;
39958;SDS011;25639;53.634;9.880;2022-07-04T14:12:51;4.30;;;0.98;;
39958;SDS011;25639;53.634;9.880;2022-07-04T14:15:16;1.58;;;1.05;;
39958;SDS011;25639;53.634;9.880;2022-07-04T14:17:41;3.22;;;1.00;;
39958;SDS011;25639;53.634;9.880;2022-07-04T14:20:08;4.53;;;1.10;;
39958;SDS011;25639;53.634;9.880;2022-07-04T14:22:35;4.45;;;0.98;;
39958;SDS011;25639;53.634;9.880;2022-07-04T14:25:01;3.20;;;1.17;;
39958;SDS011;25639;53.634;9.880;2022-07-04T14:27:27;3.28;;;1.10;;
39958;SDS011;25639;53.634;9.880;2022-07-04T14:29:52;8.93;;;1.30;;
39958;SDS011;25639;53.634;9.880;2022-07-04T14:32:18;6.13;;;1.27;;
39958;SDS011;25639;53.634;9.880;2022-07-04T14:34:43;4.80;;;1.25;;
39958;SDS011;25639;53.634;9.880;2022-07-04T14:37:09;5.10;;;1.40;;
39958;SDS011;25639;53.634;9.880;2022-07-04T14:39:34;5.15;;;1.13;;
39958;SDS011;25639;53.634;9.880;2022-07-04T14:41:59;6.68;;;1.60;;
39958;SDS011;25639;53.634;9.880;2022-07-04T14:44:25;4.80;;;1.63;;
39958;SDS011;25639;53.634;9.880;2022-07-04T14:46:50;4.65;;;1.33;;
39958;SDS011;25639;53.634;9.880;2022-07-04T14:49:16;4.40;;;1.30;;
39958;SDS011;25639;53.634;9.880;2022-07-04T14:51:41;4.90;;;1.30;;
39958;SDS011;25639;53.634;9.880;2022-07-04T14:54:07;4.85;;;1.25;;
39958;SDS011;25639;53.634;9.880;2022-07-04T14:56:33;2.95;;;1.10;;
39958;SDS011;25639;53.634;9.880;2022-07-04T14:58:59;6.53;;;1.40;;
39958;SDS011;25639;53.634;9.880;2022-07-04T15:01:24;4.15;;;0.90;;
39958;SDS011;25639;53.634;9.880;2022-07-04T15:03:50;4.05;;;1.30;;
39958;SDS011;25639;53.634;9.880;2022-07-04T15:06:15;2.67;;;1.02;;
39958;SDS011;25639;53.634;9.880;2022-07-04T15:08:40;5.43;;;0.95;;
39958;SDS011;25639;53.634;9.880;2022-07-04T15:11:05;4.35;;;1.20;;
39958;SDS011;25639;53.634;9.880;2022-07-04T15:13:31;3.13;;;1.40;;
39958;SDS011;25639;53.634;9.880;2022-07-04T15:15:56;2.30;;;1.17;;
39958;SDS011;25639;53.634;9.880;2022-07-04T15:18:22;4.72;;;1.10;;